sensor_id;sensor_type;location;lat;lon;timestamp;P1;durP1;ratioP1;P2;durP2;ratioP2
71104;SDS011;58760;48.716;8.962;2024-03-06T00:00:47;10.90;;;4.18;;
71104;SDS011;58760;48.716;8.962;2024-03-06T00:03:13;9.55;;;4.15;;
71104;SDS011;58760;48.716;8.962;2024-03-06T00:05:39;9.88;;;4.00;;
71104;SDS011;58760;48.716;8.962;2024-03-06T00:08:04;8.35;;;4.07;;
71104;SDS011;58760;48.716;8.962;2024-03-06T00:10:30;9.85;;;4.30;;
71104;SDS011;58760;48.716;8.962;2024-03-06T00:12:55;7.60;;;3.58;;
71104;SDS011;58760;48.716;8.962;2024-03-06T00:15:21;7.40;;;3.38;;
71104;SDS011;58760;48.716;8.962;2024-03-06T00:17:49;10.60;;;3.95;;
71104;SDS011;58760;48.716;8.962;2024-03-06T00:20:14;8.68;;;4.10;;
71104;SDS011;58760;48.716;8.962;2024-03-06T00:22:40;12.73;;;5.63;;
71104;SDS011;58760;48.716;8.962;2024-03-06T00:25:09;9.13;;;4.57;;
71104;SDS011;58760;48.716;8.962;2024-03-06T00:27:35;9.30;;;4.30;;
71104;SDS011;58760;48.716;8.962;2024-03-06T00:30:00;9.60;;;4.47;;
71104;SDS011;58760;48.716;8.962;2024-03-06T00:32:26;10.57;;;4.50;;
71104;SDS011;58760;48.716;8.962;2024-03-06T00:34:51;8.95;;;4.22;;
71104;SDS011;58760;48.716;8.962;2024-03-06T00:37:17;10.65;;;4.38;;
71104;SDS011;58760;48.716;8.962;2024-03-06T00:39:42;11.93;;;5.10;;
71104;SDS011;58760;48.716;8.962;2024-03-06T00:42:08;10.38;;;4.53;;
71104;SDS011;58760;48.716;8.962;2024-03-06T00:44:35;10.55;;;4.57;;
71104;SDS011;58760;48.716;8.962;2024-03-06T00:47:01;11.65;;;4.32;;
71104;SDS011;58760;48.716;8.962;2024-03-06T00:49:26;9.27;;;4.70;;
71104;SDS011;58760;48.716;8.962;2024-03-06T00:51:52;8.63;;;4.03;;
71104;SDS011;58760;48.716;8.962;2024-03-06T00:54:17;8.45;;;4.32;;
71104;SDS011;58760;48.716;8.962;2024-03-06T00:56:43;9.88;;;3.85;;
71104;SDS011;58760;48.716;8.962;2024-03-06T00:59:08;7.65;;;4.03;;
71104;SDS011;58760;48.716;8.962;2024-03-06T01:01:34;9.38;;;3.88;;
71104;SDS011;58760;48.716;8.962;2024-03-06T01:03:59;7.85;;;4.18;;
71104;SDS011;58760;48.716;8.962;2024-03-06T01:06:25;10.00;;;4.75;;
71104;SDS011;58760;48.716;8.962;2024-03-06T01:08:50;9.10;;;4.35;;
71104;SDS011;58760;48.716;8.962;2024-03-06T01:11:16;9.82;;;4.63;;
71104;SDS011;58760;48.716;8.962;2024-03-06T01:13:41;10.77;;;4.80;;
71104;SDS011;58760;48.716;8.962;2024-03-06T01:16:07;9.45;;;4.15;;
71104;SDS011;58760;48.716;8.962;2024-03-06T01:18:32;9.23;;;4.53;;
71104;SDS011;58760;48.716;8.962;2024-03-06T01:20:57;12.80;;;4.22;;
71104;SDS011;58760;48.716;8.962;2024-03-06T01:23:23;8.45;;;4.10;;
71104;SDS011;58760;48.716;8.962;2024-03-06T01:25:48;9.02;;;4.38;;
71104;SDS011;58760;48.716;8.962;2024-03-06T01:28:14;12.52;;;4.00;;
71104;SDS011;58760;48.716;8.962;2024-03-06T01:30:39;10.32;;;4.60;;
71104;SDS011;58760;48.716;8.962;2024-03-06T01:33:05;9.93;;;4.05;;
71104;SDS011;58760;48.716;8.962;2024-03-06T01:35:31;8.15;;;4.00;;
71104;SDS011;58760;48.716;8.962;2024-03-06T01:37:57;8.30;;;4.32;;
71104;SDS011;58760;48.716;8.962;2024-03-06T01:40:23;8.80;;;4.07;;
71104;SDS011;58760;48.716;8.962;2024-03-06T01:42:54;9.60;;;4.10;;
71104;SDS011;58760;48.716;8.962;2024-03-06T01:45:19;8.40;;;4.10;;
71104;SDS011;58760;48.716;8.962;2024-03-06T01:47:45;9.45;;;3.97;;
71104;SDS011;58760;48.716;8.962;2024-03-06T01:50:10;8.73;;;4.18;;
71104;SDS011;58760;48.716;8.962;2024-03-06T01:52:37;10.68;;;4.75;;
71104;SDS011;58760;48.716;8.962;2024-03-06T01:55:05;9.60;;;4.05;;
71104;SDS011;58760;48.716;8.962;2024-03-06T01:57:32;7.10;;;3.85;;
71104;SDS011;58760;48.716;8.962;2024-03-06T02:02:25;8.15;;;4.10;;
71104;SDS011;58760;48.716;8.962;2024-03-06T02:04:52;8.45;;;3.90;;
71104;SDS011;58760;48.716;8.962;2024-03-06T02:07:22;8.90;;;4.32;;
71104;SDS011;58760;48.716;8.962;2024-03-06T02:09:49;7.38;;;3.70;;
71104;SDS011;58760;48.716;8.962;2024-03-06T02:12:15;8.18;;;3.70;;
71104;SDS011;58760;48.716;8.962;2024-03-06T02:14:41;10.88;;;4.75;;
71104;SDS011;58760;48.716;8.962;2024-03-06T02:17:07;10.23;;;4.90;;
71104;SDS011;58760;48.716;8.962;2024-03-06T02:19:39;9.57;;;4.38;;
71104;SDS011;58760;48.716;8.962;2024-03-06T02:22:05;10.95;;;4.57;;
71104;SDS011;58760;48.716;8.962;2024-03-06T02:24:31;9.32;;;4.10;;
71104;SDS011;58760;48.716;8.962;2024-03-06T02:26:56;8.07;;;3.58;;
71104;SDS011;58760;48.716;8.962;2024-03-06T02:29:25;7.50;;;3.83;;
71104;SDS011;58760;48.716;8.962;2024-03-06T02:31:50;9.77;;;4.25;;
71104;SDS011;58760;48.716;8.962;2024-03-06T02:34:15;10.38;;;4.43;;
71104;SDS011;58760;48.716;8.962;2024-03-06T02:36:41;9.93;;;3.92;;
71104;SDS011;58760;48.716;8.962;2024-03-06T02:39:07;7.88;;;4.05;;
71104;SDS011;58760;48.716;8.962;2024-03-06T02:41:36;9.77;;;4.15;;
71104;SDS011;58760;48.716;8.962;2024-03-06T02:44:02;8.00;;;3.45;;
71104;SDS011;58760;48.716;8.962;2024-03-06T02:46:29;7.30;;;3.45;;
71104;SDS011;58760;48.716;8.962;2024-03-06T02:48:54;7.43;;;3.88;;
71104;SDS011;58760;48.716;8.962;2024-03-06T02:51:20;8.25;;;3.78;;
71104;SDS011;58760;48.716;8.962;2024-03-06T02:53:46;8.05;;;4.00;;
71104;SDS011;58760;48.716;8.962;2024-03-06T02:56:20;8.07;;;3.60;;
71104;SDS011;58760;48.716;8.962;2024-03-06T02:58:46;9.00;;;3.83;;
71104;SDS011;58760;48.716;8.962;2024-03-06T03:01:11;10.18;;;4.43;;
71104;SDS011;58760;48.716;8.962;2024-03-06T03:03:41;13.55;;;4.05;;
71104;SDS011;58760;48.716;8.962;2024-03-06T03:06:09;6.97;;;3.58;;
71104;SDS011;58760;48.716;8.962;2024-03-06T03:08:36;7.55;;;3.45;;
71104;SDS011;58760;48.716;8.962;2024-03-06T03:11:02;7.28;;;3.65;;
71104;SDS011;58760;48.716;8.962;2024-03-06T03:13:28;6.32;;;3.13;;
71104;SDS011;58760;48.716;8.962;2024-03-06T03:15:53;8.80;;;3.60;;
71104;SDS011;58760;48.716;8.962;2024-03-06T03:18:19;8.40;;;3.40;;
71104;SDS011;58760;48.716;8.962;2024-03-06T03:20:44;6.85;;;3.00;;
71104;SDS011;58760;48.716;8.962;2024-03-06T03:23:09;6.30;;;3.15;;
71104;SDS011;58760;48.716;8.962;2024-03-06T03:25:39;7.22;;;3.22;;
71104;SDS011;58760;48.716;8.962;2024-03-06T03:28:06;8.45;;;2.90;;
71104;SDS011;58760;48.716;8.962;2024-03-06T03:30:32;8.75;;;3.28;;
71104;SDS011;58760;48.716;8.962;2024-03-06T03:32:57;7.22;;;2.95;;
71104;SDS011;58760;48.716;8.962;2024-03-06T03:35:23;7.03;;;2.72;;
71104;SDS011;58760;48.716;8.962;2024-03-06T03:40:20;6.82;;;3.05;;
71104;SDS011;58760;48.716;8.962;2024-03-06T03:42:46;7.60;;;2.85;;
71104;SDS011;58760;48.716;8.962;2024-03-06T03:45:12;7.40;;;2.45;;
71104;SDS011;58760;48.716;8.962;2024-03-06T03:47:38;7.47;;;2.85;;
71104;SDS011;58760;48.716;8.962;2024-03-06T03:50:04;5.60;;;2.10;;
71104;SDS011;58760;48.716;8.962;2024-03-06T03:52:30;7.18;;;2.92;;
71104;SDS011;58760;48.716;8.962;2024-03-06T03:54:55;5.95;;;2.47;;
71104;SDS011;58760;48.716;8.962;2024-03-06T03:57:21;7.32;;;2.55;;
71104;SDS011;58760;48.716;8.962;2024-03-06T03:59:46;5.70;;;2.30;;
71104;SDS011;58760;48.716;8.962;2024-03-06T04:02:11;6.75;;;2.47;;
71104;SDS011;58760;48.716;8.962;2024-03-06T04:04:37;7.95;;;2.80;;
71104;SDS011;58760;48.716;8.962;2024-03-06T04:07:02;8.70;;;2.92;;
71104;SDS011;58760;48.716;8.962;2024-03-06T04:09:28;7.65;;;2.80;;
71104;SDS011;58760;48.716;8.962;2024-03-06T04:11:54;8.57;;;2.75;;
71104;SDS011;58760;48.716;8.962;2024-03-06T04:14:19;6.78;;;2.70;;
71104;SDS011;58760;48.716;8.962;2024-03-06T04:16:45;7.40;;;3.05;;
71104;SDS011;58760;48.716;8.962;2024-03-06T04:19:11;6.88;;;2.67;;
71104;SDS011;58760;48.716;8.962;2024-03-06T04:21:43;8.27;;;3.05;;
71104;SDS011;58760;48.716;8.962;2024-03-06T04:24:09;10.32;;;3.45;;
71104;SDS011;58760;48.716;8.962;2024-03-06T04:26:35;10.13;;;3.45;;
71104;SDS011;58760;48.716;8.962;2024-03-06T04:29:00;7.75;;;2.92;;
71104;SDS011;58760;48.716;8.962;2024-03-06T04:31:26;8.35;;;3.45;;
71104;SDS011;58760;48.716;8.962;2024-03-06T04:33:51;7.10;;;3.30;;
71104;SDS011;58760;48.716;8.962;2024-03-06T04:36:17;8.00;;;3.83;;
71104;SDS011;58760;48.716;8.962;2024-03-06T04:38:43;12.52;;;3.75;;
71104;SDS011;58760;48.716;8.962;2024-03-06T04:41:08;8.30;;;3.67;;
71104;SDS011;58760;48.716;8.962;2024-03-06T04:43:34;10.93;;;4.10;;
71104;SDS011;58760;48.716;8.962;2024-03-06T04:46:00;8.52;;;3.50;;
71104;SDS011;58760;48.716;8.962;2024-03-06T04:48:25;8.57;;;3.25;;
71104;SDS011;58760;48.716;8.962;2024-03-06T04:50:51;9.80;;;3.63;;
71104;SDS011;58760;48.716;8.962;2024-03-06T04:53:18;9.07;;;4.03;;
71104;SDS011;58760;48.716;8.962;2024-03-06T04:55:45;8.52;;;3.70;;
71104;SDS011;58760;48.716;8.962;2024-03-06T04:58:11;8.73;;;3.90;;
71104;SDS011;58760;48.716;8.962;2024-03-06T05:00:37;10.02;;;3.70;;
71104;SDS011;58760;48.716;8.962;2024-03-06T05:03:02;7.63;;;3.75;;
71104;SDS011;58760;48.716;8.962;2024-03-06T05:05:28;9.60;;;3.80;;
71104;SDS011;58760;48.716;8.962;2024-03-06T05:07:54;7.85;;;3.60;;
71104;SDS011;58760;48.716;8.962;2024-03-06T05:10:20;10.63;;;3.70;;
71104;SDS011;58760;48.716;8.962;2024-03-06T05:12:45;14.65;;;4.18;;
71104;SDS011;58760;48.716;8.962;2024-03-06T05:15:11;8.15;;;3.47;;
71104;SDS011;58760;48.716;8.962;2024-03-06T05:17:36;9.70;;;4.15;;
71104;SDS011;58760;48.716;8.962;2024-03-06T05:20:02;12.65;;;4.10;;
71104;SDS011;58760;48.716;8.962;2024-03-06T05:22:29;8.35;;;4.15;;
71104;SDS011;58760;48.716;8.962;2024-03-06T05:24:54;8.57;;;3.67;;
71104;SDS011;58760;48.716;8.962;2024-03-06T05:27:20;10.55;;;4.07;;
71104;SDS011;58760;48.716;8.962;2024-03-06T05:29:46;9.90;;;3.78;;
71104;SDS011;58760;48.716;8.962;2024-03-06T05:32:11;12.40;;;4.35;;
71104;SDS011;58760;48.716;8.962;2024-03-06T05:34:37;8.63;;;4.45;;
71104;SDS011;58760;48.716;8.962;2024-03-06T05:37:03;9.55;;;4.00;;
71104;SDS011;58760;48.716;8.962;2024-03-06T05:39:29;9.27;;;4.28;;
71104;SDS011;58760;48.716;8.962;2024-03-06T05:41:59;10.35;;;4.03;;
71104;SDS011;58760;48.716;8.962;2024-03-06T05:44:27;9.02;;;3.80;;
71104;SDS011;58760;48.716;8.962;2024-03-06T05:46:53;9.23;;;4.15;;
71104;SDS011;58760;48.716;8.962;2024-03-06T05:49:18;13.05;;;4.55;;
71104;SDS011;58760;48.716;8.962;2024-03-06T05:51:44;8.40;;;4.43;;
71104;SDS011;58760;48.716;8.962;2024-03-06T05:54:10;9.35;;;4.32;;
71104;SDS011;58760;48.716;8.962;2024-03-06T05:56:36;9.32;;;4.10;;
71104;SDS011;58760;48.716;8.962;2024-03-06T05:59:01;10.88;;;4.07;;
71104;SDS011;58760;48.716;8.962;2024-03-06T06:01:32;13.20;;;4.68;;
71104;SDS011;58760;48.716;8.962;2024-03-06T06:03:58;10.57;;;4.47;;
71104;SDS011;58760;48.716;8.962;2024-03-06T06:06:25;11.10;;;4.45;;
71104;SDS011;58760;48.716;8.962;2024-03-06T06:08:51;10.40;;;4.50;;
71104;SDS011;58760;48.716;8.962;2024-03-06T06:11:16;9.60;;;4.25;;
71104;SDS011;58760;48.716;8.962;2024-03-06T06:13:42;9.48;;;4.22;;
71104;SDS011;58760;48.716;8.962;2024-03-06T06:16:07;14.60;;;4.20;;
71104;SDS011;58760;48.716;8.962;2024-03-06T06:18:33;10.65;;;4.28;;
71104;SDS011;58760;48.716;8.962;2024-03-06T06:20:59;13.05;;;4.78;;
71104;SDS011;58760;48.716;8.962;2024-03-06T06:23:25;12.60;;;4.32;;
71104;SDS011;58760;48.716;8.962;2024-03-06T06:25:50;11.02;;;4.57;;
71104;SDS011;58760;48.716;8.962;2024-03-06T06:28:16;12.23;;;4.43;;
71104;SDS011;58760;48.716;8.962;2024-03-06T06:30:42;11.80;;;4.60;;
71104;SDS011;58760;48.716;8.962;2024-03-06T06:33:08;10.93;;;4.05;;
71104;SDS011;58760;48.716;8.962;2024-03-06T06:35:34;12.90;;;5.70;;
71104;SDS011;58760;48.716;8.962;2024-03-06T06:38:00;13.52;;;4.22;;
71104;SDS011;58760;48.716;8.962;2024-03-06T06:40:26;12.30;;;4.30;;
71104;SDS011;58760;48.716;8.962;2024-03-06T06:45:18;10.45;;;4.30;;
71104;SDS011;58760;48.716;8.962;2024-03-06T06:47:45;11.73;;;5.07;;
71104;SDS011;58760;48.716;8.962;2024-03-06T06:50:12;12.68;;;4.70;;
71104;SDS011;58760;48.716;8.962;2024-03-06T06:52:38;8.18;;;4.38;;
71104;SDS011;58760;48.716;8.962;2024-03-06T06:55:04;9.88;;;4.20;;
71104;SDS011;58760;48.716;8.962;2024-03-06T06:57:31;11.63;;;4.40;;
71104;SDS011;58760;48.716;8.962;2024-03-06T06:59:58;10.00;;;4.10;;
71104;SDS011;58760;48.716;8.962;2024-03-06T07:02:24;9.80;;;4.25;;
71104;SDS011;58760;48.716;8.962;2024-03-06T07:05:03;9.85;;;4.57;;
71104;SDS011;58760;48.716;8.962;2024-03-06T07:11:11;11.48;;;4.13;;
71104;SDS011;58760;48.716;8.962;2024-03-06T07:14:03;10.05;;;4.75;;
71104;SDS011;58760;48.716;8.962;2024-03-06T07:16:46;13.55;;;4.45;;
71104;SDS011;58760;48.716;8.962;2024-03-06T07:20:09;9.93;;;4.45;;
71104;SDS011;58760;48.716;8.962;2024-03-06T07:34:04;11.60;;;3.92;;
71104;SDS011;58760;48.716;8.962;2024-03-06T07:36:32;9.50;;;4.35;;
71104;SDS011;58760;48.716;8.962;2024-03-06T07:39:14;8.48;;;3.90;;
71104;SDS011;58760;48.716;8.962;2024-03-06T07:42:43;7.97;;;3.40;;
71104;SDS011;58760;48.716;8.962;2024-03-06T07:45:40;9.13;;;3.33;;
71104;SDS011;58760;48.716;8.962;2024-03-06T07:48:18;10.07;;;3.80;;
71104;SDS011;58760;48.716;8.962;2024-03-06T07:51:15;8.52;;;3.70;;
71104;SDS011;58760;48.716;8.962;2024-03-06T07:54:07;12.30;;;4.00;;
71104;SDS011;58760;48.716;8.962;2024-03-06T07:56:34;8.60;;;3.53;;
71104;SDS011;58760;48.716;8.962;2024-03-06T07:59:34;9.15;;;3.83;;
71104;SDS011;58760;48.716;8.962;2024-03-06T08:02:53;8.27;;;3.50;;
71104;SDS011;58760;48.716;8.962;2024-03-06T08:05:26;10.90;;;3.70;;
71104;SDS011;58760;48.716;8.962;2024-03-06T08:07:51;9.23;;;3.33;;
71104;SDS011;58760;48.716;8.962;2024-03-06T08:10:17;10.02;;;3.53;;
71104;SDS011;58760;48.716;8.962;2024-03-06T08:12:44;10.65;;;3.97;;
71104;SDS011;58760;48.716;8.962;2024-03-06T08:15:11;9.10;;;3.83;;
71104;SDS011;58760;48.716;8.962;2024-03-06T08:17:44;6.88;;;3.17;;
71104;SDS011;58760;48.716;8.962;2024-03-06T08:20:09;11.43;;;3.60;;
71104;SDS011;58760;48.716;8.962;2024-03-06T08:22:39;9.18;;;3.00;;
71104;SDS011;58760;48.716;8.962;2024-03-06T08:25:06;13.68;;;4.05;;
71104;SDS011;58760;48.716;8.962;2024-03-06T08:27:41;8.02;;;3.83;;
71104;SDS011;58760;48.716;8.962;2024-03-06T08:30:07;10.30;;;4.43;;
71104;SDS011;58760;48.716;8.962;2024-03-06T08:32:34;12.95;;;4.30;;
71104;SDS011;58760;48.716;8.962;2024-03-06T08:35:02;11.25;;;3.80;;
71104;SDS011;58760;48.716;8.962;2024-03-06T08:37:31;11.07;;;3.90;;
71104;SDS011;58760;48.716;8.962;2024-03-06T08:39:58;9.38;;;3.70;;
71104;SDS011;58760;48.716;8.962;2024-03-06T08:42:25;11.50;;;4.20;;
71104;SDS011;58760;48.716;8.962;2024-03-06T08:44:50;7.97;;;3.45;;
71104;SDS011;58760;48.716;8.962;2024-03-06T08:47:18;10.43;;;3.67;;
71104;SDS011;58760;48.716;8.962;2024-03-06T08:49:43;12.32;;;4.03;;
71104;SDS011;58760;48.716;8.962;2024-03-06T08:52:09;9.45;;;3.53;;
71104;SDS011;58760;48.716;8.962;2024-03-06T08:54:35;13.52;;;3.45;;
71104;SDS011;58760;48.716;8.962;2024-03-06T08:57:01;13.07;;;3.72;;
71104;SDS011;58760;48.716;8.962;2024-03-06T08:59:28;6.95;;;3.35;;
71104;SDS011;58760;48.716;8.962;2024-03-06T09:01:54;8.27;;;3.63;;
71104;SDS011;58760;48.716;8.962;2024-03-06T09:04:24;10.85;;;4.00;;
71104;SDS011;58760;48.716;8.962;2024-03-06T09:06:49;11.65;;;4.20;;
71104;SDS011;58760;48.716;8.962;2024-03-06T09:09:15;11.65;;;4.05;;
71104;SDS011;58760;48.716;8.962;2024-03-06T09:11:40;9.25;;;4.20;;
71104;SDS011;58760;48.716;8.962;2024-03-06T09:14:07;9.40;;;4.30;;
71104;SDS011;58760;48.716;8.962;2024-03-06T09:16:34;11.20;;;4.28;;
71104;SDS011;58760;48.716;8.962;2024-03-06T09:19:00;10.88;;;4.25;;
71104;SDS011;58760;48.716;8.962;2024-03-06T09:21:26;13.32;;;4.45;;
71104;SDS011;58760;48.716;8.962;2024-03-06T09:23:54;10.93;;;4.53;;
71104;SDS011;58760;48.716;8.962;2024-03-06T09:26:22;15.60;;;5.03;;
71104;SDS011;58760;48.716;8.962;2024-03-06T09:28:48;7.40;;;4.15;;
71104;SDS011;58760;48.716;8.962;2024-03-06T09:31:14;12.52;;;4.32;;
71104;SDS011;58760;48.716;8.962;2024-03-06T09:33:40;13.35;;;5.40;;
71104;SDS011;58760;48.716;8.962;2024-03-06T09:36:06;14.30;;;5.53;;
71104;SDS011;58760;48.716;8.962;2024-03-06T09:38:35;10.07;;;4.80;;
71104;SDS011;58760;48.716;8.962;2024-03-06T09:41:02;14.20;;;5.70;;
71104;SDS011;58760;48.716;8.962;2024-03-06T09:43:28;11.55;;;5.72;;
71104;SDS011;58760;48.716;8.962;2024-03-06T09:45:54;9.48;;;5.85;;
71104;SDS011;58760;48.716;8.962;2024-03-06T09:48:21;12.43;;;6.30;;
71104;SDS011;58760;48.716;8.962;2024-03-06T09:50:48;18.58;;;6.47;;
71104;SDS011;58760;48.716;8.962;2024-03-06T09:53:15;14.05;;;6.70;;
71104;SDS011;58760;48.716;8.962;2024-03-06T09:55:42;12.60;;;7.38;;
71104;SDS011;58760;48.716;8.962;2024-03-06T09:58:08;14.20;;;6.13;;
71104;SDS011;58760;48.716;8.962;2024-03-06T10:00:34;11.38;;;6.70;;
71104;SDS011;58760;48.716;8.962;2024-03-06T10:03:05;12.05;;;6.60;;
71104;SDS011;58760;48.716;8.962;2024-03-06T10:05:33;11.52;;;6.43;;
71104;SDS011;58760;48.716;8.962;2024-03-06T10:08:06;12.18;;;6.30;;
71104;SDS011;58760;48.716;8.962;2024-03-06T10:10:35;11.30;;;7.10;;
71104;SDS011;58760;48.716;8.962;2024-03-06T10:13:07;14.75;;;6.97;;
71104;SDS011;58760;48.716;8.962;2024-03-06T10:15:34;12.00;;;6.78;;
71104;SDS011;58760;48.716;8.962;2024-03-06T10:18:19;14.77;;;6.47;;
71104;SDS011;58760;48.716;8.962;2024-03-06T10:20:51;10.68;;;6.35;;
71104;SDS011;58760;48.716;8.962;2024-03-06T10:23:18;11.63;;;6.68;;
71104;SDS011;58760;48.716;8.962;2024-03-06T10:25:43;13.18;;;7.68;;
71104;SDS011;58760;48.716;8.962;2024-03-06T10:28:10;15.82;;;7.20;;
71104;SDS011;58760;48.716;8.962;2024-03-06T10:30:37;15.23;;;8.00;;
71104;SDS011;58760;48.716;8.962;2024-03-06T10:33:07;16.98;;;8.40;;
71104;SDS011;58760;48.716;8.962;2024-03-06T10:35:37;14.88;;;8.88;;
71104;SDS011;58760;48.716;8.962;2024-03-06T10:38:05;15.35;;;8.63;;
71104;SDS011;58760;48.716;8.962;2024-03-06T10:40:32;17.02;;;9.20;;
71104;SDS011;58760;48.716;8.962;2024-03-06T10:43:02;13.75;;;9.25;;
71104;SDS011;58760;48.716;8.962;2024-03-06T10:48:37;15.57;;;8.90;;
71104;SDS011;58760;48.716;8.962;2024-03-06T10:51:05;15.85;;;10.68;;
71104;SDS011;58760;48.716;8.962;2024-03-06T10:53:46;16.08;;;10.07;;
71104;SDS011;58760;48.716;8.962;2024-03-06T10:56:13;15.32;;;10.02;;
71104;SDS011;58760;48.716;8.962;2024-03-06T10:58:42;17.50;;;10.73;;
71104;SDS011;58760;48.716;8.962;2024-03-06T11:01:09;16.67;;;11.00;;
71104;SDS011;58760;48.716;8.962;2024-03-06T11:03:36;21.02;;;10.65;;
71104;SDS011;58760;48.716;8.962;2024-03-06T11:06:05;17.83;;;10.85;;
71104;SDS011;58760;48.716;8.962;2024-03-06T11:08:34;14.50;;;10.52;;
71104;SDS011;58760;48.716;8.962;2024-03-06T11:13:46;18.45;;;11.90;;
71104;SDS011;58760;48.716;8.962;2024-03-06T11:16:15;19.58;;;12.25;;
71104;SDS011;58760;48.716;8.962;2024-03-06T11:18:51;20.33;;;13.18;;
71104;SDS011;58760;48.716;8.962;2024-03-06T11:21:31;20.98;;;13.70;;
71104;SDS011;58760;48.716;8.962;2024-03-06T11:26:46;19.48;;;13.10;;
71104;SDS011;58760;48.716;8.962;2024-03-06T11:29:21;21.35;;;13.77;;
71104;SDS011;58760;48.716;8.962;2024-03-06T11:31:59;22.20;;;14.57;;
71104;SDS011;58760;48.716;8.962;2024-03-06T11:34:33;20.42;;;14.68;;
71104;SDS011;58760;48.716;8.962;2024-03-06T11:37:03;22.63;;;14.93;;
71104;SDS011;58760;48.716;8.962;2024-03-06T11:39:33;22.52;;;14.00;;
71104;SDS011;58760;48.716;8.962;2024-03-06T11:42:12;21.35;;;13.50;;
71104;SDS011;58760;48.716;8.962;2024-03-06T11:44:54;22.88;;;13.90;;
71104;SDS011;58760;48.716;8.962;2024-03-06T11:47:24;21.15;;;13.32;;
71104;SDS011;58760;48.716;8.962;2024-03-06T11:49:49;22.55;;;14.52;;
71104;SDS011;58760;48.716;8.962;2024-03-06T11:52:16;22.70;;;14.63;;
71104;SDS011;58760;48.716;8.962;2024-03-06T11:54:42;22.02;;;13.95;;
71104;SDS011;58760;48.716;8.962;2024-03-06T11:57:08;22.77;;;14.57;;
71104;SDS011;58760;48.716;8.962;2024-03-06T11:59:36;24.52;;;15.27;;
71104;SDS011;58760;48.716;8.962;2024-03-06T12:02:12;26.60;;;15.45;;
71104;SDS011;58760;48.716;8.962;2024-03-06T12:16:16;28.55;;;17.25;;
71104;SDS011;58760;48.716;8.962;2024-03-06T12:18:42;27.52;;;15.95;;
71104;SDS011;58760;48.716;8.962;2024-03-06T12:21:08;25.65;;;15.02;;
71104;SDS011;58760;48.716;8.962;2024-03-06T12:23:35;26.58;;;15.73;;
71104;SDS011;58760;48.716;8.962;2024-03-06T12:26:02;22.17;;;15.02;;
71104;SDS011;58760;48.716;8.962;2024-03-06T12:28:38;25.38;;;16.27;;
71104;SDS011;58760;48.716;8.962;2024-03-06T12:31:04;26.55;;;16.23;;
71104;SDS011;58760;48.716;8.962;2024-03-06T12:33:30;27.35;;;14.15;;
71104;SDS011;58760;48.716;8.962;2024-03-06T12:36:01;26.52;;;15.75;;
71104;SDS011;58760;48.716;8.962;2024-03-06T12:38:31;26.90;;;15.40;;
71104;SDS011;58760;48.716;8.962;2024-03-06T12:41:02;26.85;;;16.17;;
71104;SDS011;58760;48.716;8.962;2024-03-06T12:43:29;27.40;;;15.95;;
71104;SDS011;58760;48.716;8.962;2024-03-06T12:45:55;22.55;;;14.13;;
71104;SDS011;58760;48.716;8.962;2024-03-06T12:48:22;24.48;;;14.35;;
71104;SDS011;58760;48.716;8.962;2024-03-06T12:50:48;25.52;;;14.68;;
71104;SDS011;58760;48.716;8.962;2024-03-06T12:53:20;24.65;;;14.02;;
71104;SDS011;58760;48.716;8.962;2024-03-06T12:55:46;21.83;;;13.98;;
71104;SDS011;58760;48.716;8.962;2024-03-06T12:58:12;22.75;;;13.90;;
71104;SDS011;58760;48.716;8.962;2024-03-06T13:00:42;24.35;;;14.98;;
71104;SDS011;58760;48.716;8.962;2024-03-06T13:03:10;25.58;;;15.23;;
71104;SDS011;58760;48.716;8.962;2024-03-06T13:05:36;25.75;;;14.70;;
71104;SDS011;58760;48.716;8.962;2024-03-06T13:08:02;22.85;;;14.93;;
71104;SDS011;58760;48.716;8.962;2024-03-06T13:10:28;25.10;;;15.65;;
71104;SDS011;58760;48.716;8.962;2024-03-06T13:12:54;24.30;;;14.68;;
71104;SDS011;58760;48.716;8.962;2024-03-06T13:15:19;27.60;;;14.85;;
71104;SDS011;58760;48.716;8.962;2024-03-06T13:17:45;25.13;;;15.52;;
71104;SDS011;58760;48.716;8.962;2024-03-06T13:20:11;25.63;;;14.82;;
71104;SDS011;58760;48.716;8.962;2024-03-06T13:22:39;24.77;;;14.13;;
71104;SDS011;58760;48.716;8.962;2024-03-06T13:25:06;24.98;;;14.40;;
71104;SDS011;58760;48.716;8.962;2024-03-06T13:27:32;22.77;;;14.18;;
71104;SDS011;58760;48.716;8.962;2024-03-06T13:29:57;21.10;;;13.82;;
71104;SDS011;58760;48.716;8.962;2024-03-06T13:32:23;24.90;;;15.05;;
71104;SDS011;58760;48.716;8.962;2024-03-06T13:34:49;23.70;;;14.73;;
71104;SDS011;58760;48.716;8.962;2024-03-06T13:37:15;20.92;;;14.32;;
71104;SDS011;58760;48.716;8.962;2024-03-06T13:39:41;20.95;;;13.88;;
71104;SDS011;58760;48.716;8.962;2024-03-06T13:42:07;24.67;;;14.73;;
71104;SDS011;58760;48.716;8.962;2024-03-06T13:44:36;22.88;;;14.52;;
71104;SDS011;58760;48.716;8.962;2024-03-06T13:47:02;24.38;;;13.93;;
71104;SDS011;58760;48.716;8.962;2024-03-06T13:52:01;20.35;;;12.80;;
71104;SDS011;58760;48.716;8.962;2024-03-06T13:54:27;20.80;;;12.18;;
71104;SDS011;58760;48.716;8.962;2024-03-06T13:56:52;20.58;;;13.80;;
71104;SDS011;58760;48.716;8.962;2024-03-06T13:59:26;18.70;;;12.30;;
71104;SDS011;58760;48.716;8.962;2024-03-06T14:01:52;20.02;;;12.95;;
71104;SDS011;58760;48.716;8.962;2024-03-06T14:04:18;20.92;;;13.00;;
71104;SDS011;58760;48.716;8.962;2024-03-06T14:06:44;20.08;;;12.85;;
71104;SDS011;58760;48.716;8.962;2024-03-06T14:09:09;21.02;;;12.27;;
71104;SDS011;58760;48.716;8.962;2024-03-06T14:11:35;19.88;;;12.93;;
71104;SDS011;58760;48.716;8.962;2024-03-06T14:14:00;20.42;;;13.05;;
71104;SDS011;58760;48.716;8.962;2024-03-06T14:16:26;20.40;;;12.95;;
71104;SDS011;58760;48.716;8.962;2024-03-06T14:18:52;20.30;;;13.57;;
71104;SDS011;58760;48.716;8.962;2024-03-06T14:21:18;21.63;;;13.20;;
71104;SDS011;58760;48.716;8.962;2024-03-06T14:23:44;26.13;;;14.20;;
71104;SDS011;58760;48.716;8.962;2024-03-06T14:26:10;24.65;;;15.93;;
71104;SDS011;58760;48.716;8.962;2024-03-06T14:28:52;23.42;;;14.82;;
71104;SDS011;58760;48.716;8.962;2024-03-06T14:31:18;25.45;;;14.63;;
71104;SDS011;58760;48.716;8.962;2024-03-06T14:33:43;24.33;;;15.13;;
71104;SDS011;58760;48.716;8.962;2024-03-06T14:36:09;21.80;;;14.18;;
71104;SDS011;58760;48.716;8.962;2024-03-06T14:38:34;22.60;;;14.32;;
71104;SDS011;58760;48.716;8.962;2024-03-06T14:41:06;21.83;;;13.55;;
71104;SDS011;58760;48.716;8.962;2024-03-06T14:43:32;21.65;;;13.95;;
71104;SDS011;58760;48.716;8.962;2024-03-06T14:46:08;22.08;;;14.00;;
71104;SDS011;58760;48.716;8.962;2024-03-06T14:48:38;24.23;;;14.00;;
71104;SDS011;58760;48.716;8.962;2024-03-06T14:51:04;19.92;;;13.45;;
71104;SDS011;58760;48.716;8.962;2024-03-06T14:53:29;27.40;;;14.82;;
71104;SDS011;58760;48.716;8.962;2024-03-06T14:55:55;21.77;;;15.20;;
71104;SDS011;58760;48.716;8.962;2024-03-06T14:58:22;26.48;;;16.08;;
71104;SDS011;58760;48.716;8.962;2024-03-06T15:00:48;26.00;;;15.68;;
71104;SDS011;58760;48.716;8.962;2024-03-06T15:03:18;26.75;;;16.50;;
71104;SDS011;58760;48.716;8.962;2024-03-06T15:05:44;25.35;;;15.98;;
71104;SDS011;58760;48.716;8.962;2024-03-06T15:08:11;27.88;;;17.92;;
71104;SDS011;58760;48.716;8.962;2024-03-06T15:10:37;29.00;;;17.65;;
71104;SDS011;58760;48.716;8.962;2024-03-06T15:13:02;30.52;;;18.27;;
71104;SDS011;58760;48.716;8.962;2024-03-06T15:15:28;30.42;;;17.92;;
71104;SDS011;58760;48.716;8.962;2024-03-06T15:17:53;31.30;;;18.17;;
71104;SDS011;58760;48.716;8.962;2024-03-06T15:20:19;33.00;;;19.13;;
71104;SDS011;58760;48.716;8.962;2024-03-06T15:22:45;32.42;;;18.67;;
71104;SDS011;58760;48.716;8.962;2024-03-06T15:25:11;33.50;;;19.92;;